sensor_id;sensor_type;location;lat;lon;timestamp;P1;durP1;ratioP1;P2;durP2;ratioP2
16634;SDS011;8431;52.458;9.998;2022-07-29T00:00:40;0.50;;;0.50;;
16634;SDS011;8431;52.458;9.998;2022-07-29T00:03:09;1.63;;;0.80;;
16634;SDS011;8431;52.458;9.998;2022-07-29T00:05:37;1.88;;;0.70;;
16634;SDS011;8431;52.458;9.998;2022-07-29T00:08:05;0.98;;;0.98;;
16634;SDS011;8431;52.458;9.998;2022-07-29T00:10:32;1.40;;;0.85;;
16634;SDS011;8431;52.458;9.998;2022-07-29T00:12:59;1.08;;;0.85;;
16634;SDS011;8431;52.458;9.998;2022-07-29T00:15:27;0.68;;;0.68;;
16634;SDS011;8431;52.458;9.998;2022-07-29T00:17:55;1.20;;;0.98;;
16634;SDS011;8431;52.458;9.998;2022-07-29T00:20:22;2.25;;;0.70;;
16634;SDS011;8431;52.458;9.998;2022-07-29T00:22:49;2.22;;;0.88;;
16634;SDS011;8431;52.458;9.998;2022-07-29T00:25:17;1.10;;;0.70;;
16634;SDS011;8431;52.458;9.998;2022-07-29T00:27:44;2.50;;;0.63;;
16634;SDS011;8431;52.458;9.998;2022-07-29T00:30:12;0.35;;;0.35;;
16634;SDS011;8431;52.458;9.998;2022-07-29T00:32:39;0.57;;;0.57;;
16634;SDS011;8431;52.458;9.998;2022-07-29T00:35:08;0.95;;;0.95;;
16634;SDS011;8431;52.458;9.998;2022-07-29T00:37:53;0.47;;;0.45;;
16634;SDS011;8431;52.458;9.998;2022-07-29T00:40:20;1.45;;;0.80;;
16634;SDS011;8431;52.458;9.998;2022-07-29T00:42:48;1.77;;;1.00;;
16634;SDS011;8431;52.458;9.998;2022-07-29T00:45:17;5.03;;;0.95;;
16634;SDS011;8431;52.458;9.998;2022-07-29T00:47:44;1.30;;;1.00;;
16634;SDS011;8431;52.458;9.998;2022-07-29T00:50:13;2.72;;;1.00;;
16634;SDS011;8431;52.458;9.998;2022-07-29T00:52:41;1.45;;;0.90;;
16634;SDS011;8431;52.458;9.998;2022-07-29T00:55:09;1.65;;;1.17;;
16634;SDS011;8431;52.458;9.998;2022-07-29T00:57:37;1.05;;;0.95;;
16634;SDS011;8431;52.458;9.998;2022-07-29T01:00:07;1.13;;;1.00;;
16634;SDS011;8431;52.458;9.998;2022-07-29T01:02:36;0.85;;;0.85;;
16634;SDS011;8431;52.458;9.998;2022-07-29T01:05:04;2.38;;;0.90;;
16634;SDS011;8431;52.458;9.998;2022-07-29T01:07:34;1.00;;;1.00;;
16634;SDS011;8431;52.458;9.998;2022-07-29T01:10:02;0.90;;;0.70;;
16634;SDS011;8431;52.458;9.998;2022-07-29T01:12:30;1.70;;;1.50;;
16634;SDS011;8431;52.458;9.998;2022-07-29T01:15:00;1.48;;;1.35;;
16634;SDS011;8431;52.458;9.998;2022-07-29T01:17:29;5.20;;;0.90;;
16634;SDS011;8431;52.458;9.998;2022-07-29T01:20:02;0.70;;;0.70;;
16634;SDS011;8431;52.458;9.998;2022-07-29T01:22:42;0.80;;;0.80;;
16634;SDS011;8431;52.458;9.998;2022-07-29T01:25:25;3.17;;;0.82;;
16634;SDS011;8431;52.458;9.998;2022-07-29T01:28:08;10.80;;;1.30;;
16634;SDS011;8431;52.458;9.998;2022-07-29T01:30:50;1.10;;;1.10;;
16634;SDS011;8431;52.458;9.998;2022-07-29T01:33:20;1.13;;;1.10;;
16634;SDS011;8431;52.458;9.998;2022-07-29T01:36:10;1.67;;;0.70;;
16634;SDS011;8431;52.458;9.998;2022-07-29T01:38:41;2.25;;;1.15;;
16634;SDS011;8431;52.458;9.998;2022-07-29T01:41:12;3.95;;;1.30;;
16634;SDS011;8431;52.458;9.998;2022-07-29T01:43:44;1.20;;;1.13;;
16634;SDS011;8431;52.458;9.998;2022-07-29T01:46:19;1.02;;;1.02;;
16634;SDS011;8431;52.458;9.998;2022-07-29T01:48:52;1.45;;;1.35;;
16634;SDS011;8431;52.458;9.998;2022-07-29T01:51:24;4.93;;;1.33;;
16634;SDS011;8431;52.458;9.998;2022-07-29T01:53:57;3.05;;;1.20;;
16634;SDS011;8431;52.458;9.998;2022-07-29T01:56:30;2.65;;;1.27;;
16634;SDS011;8431;52.458;9.998;2022-07-29T01:58:59;3.15;;;1.55;;
16634;SDS011;8431;52.458;9.998;2022-07-29T02:01:28;5.93;;;1.27;;
16634;SDS011;8431;52.458;9.998;2022-07-29T02:03:57;1.75;;;1.25;;
16634;SDS011;8431;52.458;9.998;2022-07-29T02:06:28;0.63;;;0.63;;
16634;SDS011;8431;52.458;9.998;2022-07-29T02:08:58;2.33;;;1.33;;
16634;SDS011;8431;52.458;9.998;2022-07-29T02:11:27;1.38;;;1.27;;
16634;SDS011;8431;52.458;9.998;2022-07-29T02:13:56;1.80;;;1.00;;
16634;SDS011;8431;52.458;9.998;2022-07-29T02:16:26;1.75;;;1.00;;
16634;SDS011;8431;52.458;9.998;2022-07-29T02:18:57;0.90;;;0.90;;
16634;SDS011;8431;52.458;9.998;2022-07-29T02:21:26;0.73;;;0.73;;
16634;SDS011;8431;52.458;9.998;2022-07-29T02:23:55;1.17;;;1.13;;
16634;SDS011;8431;52.458;9.998;2022-07-29T02:26:25;1.65;;;1.45;;
16634;SDS011;8431;52.458;9.998;2022-07-29T02:28:55;1.27;;;1.02;;
16634;SDS011;8431;52.458;9.998;2022-07-29T02:31:24;2.08;;;0.80;;
16634;SDS011;8431;52.458;9.998;2022-07-29T02:33:58;1.92;;;1.10;;
16634;SDS011;8431;52.458;9.998;2022-07-29T02:36:27;1.85;;;0.73;;
16634;SDS011;8431;52.458;9.998;2022-07-29T02:38:55;0.70;;;0.70;;
16634;SDS011;8431;52.458;9.998;2022-07-29T02:41:26;0.65;;;0.65;;
16634;SDS011;8431;52.458;9.998;2022-07-29T02:43:58;0.82;;;0.82;;
16634;SDS011;8431;52.458;9.998;2022-07-29T02:46:33;1.30;;;0.73;;
16634;SDS011;8431;52.458;9.998;2022-07-29T02:49:07;1.55;;;1.02;;
16634;SDS011;8431;52.458;9.998;2022-07-29T02:51:41;1.52;;;1.05;;
16634;SDS011;8431;52.458;9.998;2022-07-29T02:54:14;0.63;;;0.63;;
16634;SDS011;8431;52.458;9.998;2022-07-29T02:56:48;1.20;;;1.20;;
16634;SDS011;8431;52.458;9.998;2022-07-29T02:59:21;0.80;;;0.80;;
16634;SDS011;8431;52.458;9.998;2022-07-29T03:01:52;1.27;;;1.00;;
16634;SDS011;8431;52.458;9.998;2022-07-29T03:04:22;1.40;;;1.27;;
16634;SDS011;8431;52.458;9.998;2022-07-29T03:06:51;1.40;;;1.00;;
16634;SDS011;8431;52.458;9.998;2022-07-29T03:09:19;3.22;;;1.25;;
16634;SDS011;8431;52.458;9.998;2022-07-29T03:11:49;0.80;;;0.80;;
16634;SDS011;8431;52.458;9.998;2022-07-29T03:14:16;0.70;;;0.70;;
16634;SDS011;8431;52.458;9.998;2022-07-29T03:16:44;47.00;;;44.47;;
16634;SDS011;8431;52.458;9.998;2022-07-29T03:19:12;1999.90;;;999.90;;
16634;SDS011;8431;52.458;9.998;2022-07-29T03:21:41;1999.90;;;999.90;;
16634;SDS011;8431;52.458;9.998;2022-07-29T03:24:08;43.00;;;2.65;;
16634;SDS011;8431;52.458;9.998;2022-07-29T03:26:35;1999.90;;;999.90;;
16634;SDS011;8431;52.458;9.998;2022-07-29T03:29:02;1999.90;;;999.90;;
16634;SDS011;8431;52.458;9.998;2022-07-29T03:31:29;1999.90;;;999.90;;
16634;SDS011;8431;52.458;9.998;2022-07-29T03:33:56;1999.90;;;999.90;;
16634;SDS011;8431;52.458;9.998;2022-07-29T03:36:23;1999.90;;;999.90;;
16634;SDS011;8431;52.458;9.998;2022-07-29T03:38:52;1999.90;;;999.90;;
16634;SDS011;8431;52.458;9.998;2022-07-29T03:41:19;1999.90;;;999.90;;
16634;SDS011;8431;52.458;9.998;2022-07-29T03:43:49;1999.90;;;999.90;;
16634;SDS011;8431;52.458;9.998;2022-07-29T03:46:17;1999.90;;;999.90;;
16634;SDS011;8431;52.458;9.998;2022-07-29T03:48:47;1999.90;;;999.90;;
16634;SDS011;8431;52.458;9.998;2022-07-29T03:51:18;1999.90;;;999.90;;
16634;SDS011;8431;52.458;9.998;2022-07-29T03:53:46;1999.90;;;999.90;;
16634;SDS011;8431;52.458;9.998;2022-07-29T03:56:15;1999.90;;;999.90;;
16634;SDS011;8431;52.458;9.998;2022-07-29T03:58:47;1999.90;;;999.90;;
16634;SDS011;8431;52.458;9.998;2022-07-29T04:01:14;1999.90;;;999.90;;
16634;SDS011;8431;52.458;9.998;2022-07-29T04:03:43;1999.90;;;999.90;;
16634;SDS011;8431;52.458;9.998;2022-07-29T04:06:10;1999.90;;;999.90;;
16634;SDS011;8431;52.458;9.998;2022-07-29T04:08:38;1999.90;;;999.90;;
16634;SDS011;8431;52.458;9.998;2022-07-29T04:11:05;1999.90;;;999.90;;
16634;SDS011;8431;52.458;9.998;2022-07-29T04:13:34;1999.90;;;999.90;;
16634;SDS011;8431;52.458;9.998;2022-07-29T04:16:01;1999.90;;;999.90;;
16634;SDS011;8431;52.458;9.998;2022-07-29T04:18:28;1999.90;;;999.90;;
16634;SDS011;8431;52.458;9.998;2022-07-29T04:20:55;1999.90;;;999.90;;
16634;SDS011;8431;52.458;9.998;2022-07-29T04:23:25;1999.90;;;999.90;;
16634;SDS011;8431;52.458;9.998;2022-07-29T04:25:52;1999.90;;;999.90;;
16634;SDS011;8431;52.458;9.998;2022-07-29T04:28:19;1999.90;;;999.90;;
16634;SDS011;8431;52.458;9.998;2022-07-29T04:30:48;1999.90;;;999.90;;
16634;SDS011;8431;52.458;9.998;2022-07-29T04:33:15;1999.90;;;999.90;;
16634;SDS011;8431;52.458;9.998;2022-07-29T04:35:42;1999.90;;;999.90;;
16634;SDS011;8431;52.458;9.998;2022-07-29T04:38:09;72.85;;;69.72;;
16634;SDS011;8431;52.458;9.998;2022-07-29T04:40:36;19.88;;;19.08;;
16634;SDS011;8431;52.458;9.998;2022-07-29T04:43:04;3.83;;;3.63;;
16634;SDS011;8431;52.458;9.998;2022-07-29T04:45:31;1.38;;;1.38;;
16634;SDS011;8431;52.458;9.998;2022-07-29T04:47:59;1.58;;;1.50;;
16634;SDS011;8431;52.458;9.998;2022-07-29T04:50:26;1.98;;;1.80;;
16634;SDS011;8431;52.458;9.998;2022-07-29T04:52:53;4.05;;;2.35;;
16634;SDS011;8431;52.458;9.998;2022-07-29T04:55:20;1.90;;;1.80;;
16634;SDS011;8431;52.458;9.998;2022-07-29T04:57:48;2.83;;;2.63;;
16634;SDS011;8431;52.458;9.998;2022-07-29T05:00:15;1.40;;;1.30;;
16634;SDS011;8431;52.458;9.998;2022-07-29T05:02:42;1.67;;;1.55;;
16634;SDS011;8431;52.458;9.998;2022-07-29T05:05:10;5.03;;;2.05;;
16634;SDS011;8431;52.458;9.998;2022-07-29T05:07:37;1.83;;;1.73;;
16634;SDS011;8431;52.458;9.998;2022-07-29T05:10:05;1.48;;;1.33;;
16634;SDS011;8431;52.458;9.998;2022-07-29T05:12:32;1.13;;;1.13;;
16634;SDS011;8431;52.458;9.998;2022-07-29T05:14:59;2.40;;;1.50;;
16634;SDS011;8431;52.458;9.998;2022-07-29T05:17:26;5.63;;;2.45;;
16634;SDS011;8431;52.458;9.998;2022-07-29T05:19:53;9.25;;;1.77;;
16634;SDS011;8431;52.458;9.998;2022-07-29T05:22:22;3.22;;;1.50;;
16634;SDS011;8431;52.458;9.998;2022-07-29T05:24:49;2.38;;;1.98;;
16634;SDS011;8431;52.458;9.998;2022-07-29T05:27:16;1.55;;;1.42;;
16634;SDS011;8431;52.458;9.998;2022-07-29T05:29:43;2.38;;;1.30;;
16634;SDS011;8431;52.458;9.998;2022-07-29T05:32:10;2.38;;;1.60;;
16634;SDS011;8431;52.458;9.998;2022-07-29T05:34:37;1.52;;;1.45;;
16634;SDS011;8431;52.458;9.998;2022-07-29T05:37:04;1.95;;;1.85;;
16634;SDS011;8431;52.458;9.998;2022-07-29T05:39:33;2.88;;;1.35;;
16634;SDS011;8431;52.458;9.998;2022-07-29T05:42:00;0.88;;;0.88;;
16634;SDS011;8431;52.458;9.998;2022-07-29T05:44:27;2.05;;;1.85;;
16634;SDS011;8431;52.458;9.998;2022-07-29T05:46:54;1.75;;;1.65;;
16634;SDS011;8431;52.458;9.998;2022-07-29T05:49:21;2.28;;;1.50;;
16634;SDS011;8431;52.458;9.998;2022-07-29T05:51:48;1.80;;;1.70;;
16634;SDS011;8431;52.458;9.998;2022-07-29T05:54:15;2.70;;;1.95;;
16634;SDS011;8431;52.458;9.998;2022-07-29T05:56:44;1.48;;;1.45;;
16634;SDS011;8431;52.458;9.998;2022-07-29T05:59:11;2.80;;;2.15;;
16634;SDS011;8431;52.458;9.998;2022-07-29T06:01:37;3.75;;;1.77;;
16634;SDS011;8431;52.458;9.998;2022-07-29T06:04:05;5.72;;;2.90;;
16634;SDS011;8431;52.458;9.998;2022-07-29T06:06:32;4.50;;;2.10;;
16634;SDS011;8431;52.458;9.998;2022-07-29T06:09:00;4.47;;;2.17;;
16634;SDS011;8431;52.458;9.998;2022-07-29T06:11:27;4.72;;;2.17;;
16634;SDS011;8431;52.458;9.998;2022-07-29T06:13:55;5.70;;;2.00;;
16634;SDS011;8431;52.458;9.998;2022-07-29T06:16:22;4.65;;;2.00;;
16634;SDS011;8431;52.458;9.998;2022-07-29T06:18:49;4.18;;;2.28;;
16634;SDS011;8431;52.458;9.998;2022-07-29T06:21:16;3.60;;;2.45;;
16634;SDS011;8431;52.458;9.998;2022-07-29T06:23:43;2.08;;;1.98;;
16634;SDS011;8431;52.458;9.998;2022-07-29T06:26:11;3.22;;;1.98;;
16634;SDS011;8431;52.458;9.998;2022-07-29T06:28:41;5.35;;;2.20;;
16634;SDS011;8431;52.458;9.998;2022-07-29T06:31:10;5.20;;;2.33;;
16634;SDS011;8431;52.458;9.998;2022-07-29T06:33:37;6.57;;;2.53;;
16634;SDS011;8431;52.458;9.998;2022-07-29T06:36:04;8.32;;;3.47;;
16634;SDS011;8431;52.458;9.998;2022-07-29T06:38:32;4.32;;;2.40;;
16634;SDS011;8431;52.458;9.998;2022-07-29T06:40:59;2.58;;;2.38;;
16634;SDS011;8431;52.458;9.998;2022-07-29T06:43:28;3.20;;;2.30;;
16634;SDS011;8431;52.458;9.998;2022-07-29T06:46:02;5.32;;;2.55;;
16634;SDS011;8431;52.458;9.998;2022-07-29T06:48:32;2.50;;;2.30;;
16634;SDS011;8431;52.458;9.998;2022-07-29T06:51:01;3.85;;;2.40;;
16634;SDS011;8431;52.458;9.998;2022-07-29T06:53:29;6.30;;;2.65;;
16634;SDS011;8431;52.458;9.998;2022-07-29T06:55:56;5.90;;;2.65;;
16634;SDS011;8431;52.458;9.998;2022-07-29T06:58:24;8.93;;;2.80;;
16634;SDS011;8431;52.458;9.998;2022-07-29T07:00:51;4.50;;;2.08;;
16634;SDS011;8431;52.458;9.998;2022-07-29T07:03:24;5.60;;;2.65;;
16634;SDS011;8431;52.458;9.998;2022-07-29T07:05:53;3.53;;;2.38;;
16634;SDS011;8431;52.458;9.998;2022-07-29T07:08:20;5.20;;;2.55;;
16634;SDS011;8431;52.458;9.998;2022-07-29T07:10:48;6.75;;;2.80;;
16634;SDS011;8431;52.458;9.998;2022-07-29T07:13:16;5.18;;;2.47;;
16634;SDS011;8431;52.458;9.998;2022-07-29T07:15:43;5.68;;;2.67;;
16634;SDS011;8431;52.458;9.998;2022-07-29T07:18:12;6.40;;;2.38;;
16634;SDS011;8431;52.458;9.998;2022-07-29T07:20:40;3.63;;;2.92;;
16634;SDS011;8431;52.458;9.998;2022-07-29T07:23:08;7.75;;;2.67;;
16634;SDS011;8431;52.458;9.998;2022-07-29T07:25:35;7.65;;;3.05;;
16634;SDS011;8431;52.458;9.998;2022-07-29T07:28:02;4.10;;;2.30;;
16634;SDS011;8431;52.458;9.998;2022-07-29T07:30:30;2.80;;;2.40;;
16634;SDS011;8431;52.458;9.998;2022-07-29T07:32:57;3.80;;;2.58;;
16634;SDS011;8431;52.458;9.998;2022-07-29T07:35:24;3.88;;;3.08;;
16634;SDS011;8431;52.458;9.998;2022-07-29T07:38:09;3.50;;;2.53;;
16634;SDS011;8431;52.458;9.998;2022-07-29T07:40:36;4.28;;;2.83;;
16634;SDS011;8431;52.458;9.998;2022-07-29T07:43:03;3.08;;;2.60;;
16634;SDS011;8431;52.458;9.998;2022-07-29T07:45:30;8.48;;;3.05;;
16634;SDS011;8431;52.458;9.998;2022-07-29T07:47:58;4.82;;;2.70;;
16634;SDS011;8431;52.458;9.998;2022-07-29T07:50:26;3.95;;;2.38;;
16634;SDS011;8431;52.458;9.998;2022-07-29T07:52:53;2.85;;;2.58;;
16634;SDS011;8431;52.458;9.998;2022-07-29T07:55:24;5.90;;;3.00;;
16634;SDS011;8431;52.458;9.998;2022-07-29T07:57:52;6.05;;;2.47;;
16634;SDS011;8431;52.458;9.998;2022-07-29T08:00:19;6.75;;;2.85;;
16634;SDS011;8431;52.458;9.998;2022-07-29T08:02:47;2.72;;;2.45;;
16634;SDS011;8431;52.458;9.998;2022-07-29T08:05:15;4.82;;;2.60;;
16634;SDS011;8431;52.458;9.998;2022-07-29T08:07:43;5.45;;;2.97;;
16634;SDS011;8431;52.458;9.998;2022-07-29T08:10:11;4.32;;;2.72;;
16634;SDS011;8431;52.458;9.998;2022-07-29T08:12:40;4.70;;;2.65;;
16634;SDS011;8431;52.458;9.998;2022-07-29T08:15:07;4.20;;;2.50;;
16634;SDS011;8431;52.458;9.998;2022-07-29T08:17:35;2.42;;;2.30;;
16634;SDS011;8431;52.458;9.998;2022-07-29T08:20:02;7.18;;;2.58;;
16634;SDS011;8431;52.458;9.998;2022-07-29T08:22:30;8.80;;;2.90;;
16634;SDS011;8431;52.458;9.998;2022-07-29T08:24:57;4.15;;;2.75;;
16634;SDS011;8431;52.458;9.998;2022-07-29T08:27:24;3.97;;;2.30;;
16634;SDS011;8431;52.458;9.998;2022-07-29T08:29:53;3.55;;;2.63;;
16634;SDS011;8431;52.458;9.998;2022-07-29T08:32:20;7.00;;;3.38;;
16634;SDS011;8431;52.458;9.998;2022-07-29T08:34:47;5.72;;;2.80;;
16634;SDS011;8431;52.458;9.998;2022-07-29T08:37:14;3.47;;;2.60;;
16634;SDS011;8431;52.458;9.998;2022-07-29T08:39:41;3.60;;;2.28;;
16634;SDS011;8431;52.458;9.998;2022-07-29T08:42:08;2.55;;;2.35;;
16634;SDS011;8431;52.458;9.998;2022-07-29T08:44:37;3.30;;;2.50;;
16634;SDS011;8431;52.458;9.998;2022-07-29T08:47:06;6.20;;;2.85;;
16634;SDS011;8431;52.458;9.998;2022-07-29T08:49:34;3.03;;;2.72;;
16634;SDS011;8431;52.458;9.998;2022-07-29T08:52:02;4.38;;;2.78;;
16634;SDS011;8431;52.458;9.998;2022-07-29T08:54:29;5.25;;;2.90;;
16634;SDS011;8431;52.458;9.998;2022-07-29T08:56:58;3.67;;;2.50;;
16634;SDS011;8431;52.458;9.998;2022-07-29T08:59:27;7.75;;;2.95;;
16634;SDS011;8431;52.458;9.998;2022-07-29T09:01:56;4.20;;;2.88;;
16634;SDS011;8431;52.458;9.998;2022-07-29T09:04:29;6.55;;;2.70;;
16634;SDS011;8431;52.458;9.998;2022-07-29T09:07:00;6.60;;;3.28;;
16634;SDS011;8431;52.458;9.998;2022-07-29T09:09:30;4.43;;;2.70;;
16634;SDS011;8431;52.458;9.998;2022-07-29T09:11:59;3.85;;;2.67;;
16634;SDS011;8431;52.458;9.998;2022-07-29T09:14:29;4.53;;;2.60;;
16634;SDS011;8431;52.458;9.998;2022-07-29T09:16:56;6.75;;;3.17;;
16634;SDS011;8431;52.458;9.998;2022-07-29T09:19:24;7.65;;;2.72;;
16634;SDS011;8431;52.458;9.998;2022-07-29T09:21:54;2.53;;;2.33;;
16634;SDS011;8431;52.458;9.998;2022-07-29T09:24:36;4.68;;;2.33;;
16634;SDS011;8431;52.458;9.998;2022-07-29T09:29:57;5.28;;;2.55;;
16634;SDS011;8431;52.458;9.998;2022-07-29T09:32:28;5.60;;;2.50;;
16634;SDS011;8431;52.458;9.998;2022-07-29T09:35:15;6.43;;;2.53;;
16634;SDS011;8431;52.458;9.998;2022-07-29T09:37:47;7.07;;;3.08;;
16634;SDS011;8431;52.458;9.998;2022-07-29T09:40:19;4.45;;;2.50;;
16634;SDS011;8431;52.458;9.998;2022-07-29T09:42:48;5.10;;;2.28;;
16634;SDS011;8431;52.458;9.998;2022-07-29T09:45:25;4.57;;;2.40;;
16634;SDS011;8431;52.458;9.998;2022-07-29T09:47:54;4.85;;;2.13;;
16634;SDS011;8431;52.458;9.998;2022-07-29T09:50:34;4.03;;;2.33;;
16634;SDS011;8431;52.458;9.998;2022-07-29T09:53:03;5.13;;;2.63;;
16634;SDS011;8431;52.458;9.998;2022-07-29T09:55:30;5.65;;;3.10;;
16634;SDS011;8431;52.458;9.998;2022-07-29T10:00:43;2.20;;;1.95;;
16634;SDS011;8431;52.458;9.998;2022-07-29T10:03:11;4.45;;;2.92;;
16634;SDS011;8431;52.458;9.998;2022-07-29T10:05:39;6.47;;;2.78;;
16634;SDS011;8431;52.458;9.998;2022-07-29T10:08:08;7.18;;;2.58;;
16634;SDS011;8431;52.458;9.998;2022-07-29T10:10:38;5.97;;;2.58;;
16634;SDS011;8431;52.458;9.998;2022-07-29T10:13:07;5.97;;;2.40;;
16634;SDS011;8431;52.458;9.998;2022-07-29T10:15:36;6.25;;;2.38;;
16634;SDS011;8431;52.458;9.998;2022-07-29T10:18:05;3.60;;;2.13;;
16634;SDS011;8431;52.458;9.998;2022-07-29T10:20:33;3.42;;;2.50;;
16634;SDS011;8431;52.458;9.998;2022-07-29T10:23:02;6.70;;;2.20;;
16634;SDS011;8431;52.458;9.998;2022-07-29T10:25:32;5.10;;;2.30;;
16634;SDS011;8431;52.458;9.998;2022-07-29T10:28:00;4.22;;;2.78;;
16634;SDS011;8431;52.458;9.998;2022-07-29T10:30:27;3.25;;;2.55;;
16634;SDS011;8431;52.458;9.998;2022-07-29T10:33:08;4.88;;;2.47;;
16634;SDS011;8431;52.458;9.998;2022-07-29T10:35:47;7.43;;;2.25;;
16634;SDS011;8431;52.458;9.998;2022-07-29T10:38:29;3.38;;;2.38;;
16634;SDS011;8431;52.458;9.998;2022-07-29T10:44:08;5.25;;;2.17;;
16634;SDS011;8431;52.458;9.998;2022-07-29T10:46:39;2.40;;;2.20;;
16634;SDS011;8431;52.458;9.998;2022-07-29T10:49:08;3.92;;;2.10;;
16634;SDS011;8431;52.458;9.998;2022-07-29T10:51:59;4.10;;;2.00;;
16634;SDS011;8431;52.458;9.998;2022-07-29T10:57:21;2.00;;;1.90;;
16634;SDS011;8431;52.458;9.998;2022-07-29T11:00:25;3.83;;;2.20;;
16634;SDS011;8431;52.458;9.998;2022-07-29T11:02:52;3.00;;;2.00;;
16634;SDS011;8431;52.458;9.998;2022-07-29T11:05:21;3.40;;;2.00;;
16634;SDS011;8431;52.458;9.998;2022-07-29T11:08:16;7.22;;;2.55;;
16634;SDS011;8431;52.458;9.998;2022-07-29T11:10:45;3.35;;;2.03;;
16634;SDS011;8431;52.458;9.998;2022-07-29T11:13:14;5.07;;;2.25;;
16634;SDS011;8431;52.458;9.998;2022-07-29T11:16:18;8.07;;;2.20;;
16634;SDS011;8431;52.458;9.998;2022-07-29T11:21:46;7.70;;;2.60;;
16634;SDS011;8431;52.458;9.998;2022-07-29T11:24:15;3.22;;;2.05;;
16634;SDS011;8431;52.458;9.998;2022-07-29T11:26:44;2.67;;;2.47;;
16634;SDS011;8431;52.458;9.998;2022-07-29T11:29:16;9.70;;;2.00;;
16634;SDS011;8431;52.458;9.998;2022-07-29T11:31:46;2.15;;;1.83;;
16634;SDS011;8431;52.458;9.998;2022-07-29T11:34:21;3.38;;;2.25;;
16634;SDS011;8431;52.458;9.998;2022-07-29T11:39:44;2.40;;;2.20;;
16634;SDS011;8431;52.458;9.998;2022-07-29T11:45:08;3.88;;;2.63;;
16634;SDS011;8431;52.458;9.998;2022-07-29T11:47:39;3.30;;;2.38;;
16634;SDS011;8431;52.458;9.998;2022-07-29T11:50:07;3.72;;;2.30;;
16634;SDS011;8431;52.458;9.998;2022-07-29T11:52:36;3.90;;;2.40;;
16634;SDS011;8431;52.458;9.998;2022-07-29T11:55:08;4.63;;;2.28;;
16634;SDS011;8431;52.458;9.998;2022-07-29T11:57:37;4.10;;;2.17;;
16634;SDS011;8431;52.458;9.998;2022-07-29T12:00:16;5.10;;;2.15;;
16634;SDS011;8431;52.458;9.998;2022-07-29T12:02:48;10.85;;;2.53;;
16634;SDS011;8431;52.458;9.998;2022-07-29T12:05:15;4.25;;;2.40;;
16634;SDS011;8431;52.458;9.998;2022-07-29T12:07:43;3.80;;;2.20;;
16634;SDS011;8431;52.458;9.998;2022-07-29T12:10:10;3.38;;;2.40;;
16634;SDS011;8431;52.458;9.998;2022-07-29T12:12:37;3.78;;;2.53;;
16634;SDS011;8431;52.458;9.998;2022-07-29T12:15:15;3.80;;;2.60;;
16634;SDS011;8431;52.458;9.998;2022-07-29T12:17:45;6.85;;;2.58;;
16634;SDS011;8431;52.458;9.998;2022-07-29T12:20:13;4.95;;;2.13;;
16634;SDS011;8431;52.458;9.998;2022-07-29T12:22:51;6.18;;;2.58;;
16634;SDS011;8431;52.458;9.998;2022-07-29T12:25:25;4.57;;;2.65;;
16634;SDS011;8431;52.458;9.998;2022-07-29T12:27:58;4.60;;;2.05;;
16634;SDS011;8431;52.458;9.998;2022-07-29T12:33:20;4.28;;;2.20;;
16634;SDS011;8431;52.458;9.998;2022-07-29T12:35:49;2.60;;;2.30;;
16634;SDS011;8431;52.458;9.998;2022-07-29T12:38:17;269.60;;;77.45;;
16634;SDS011;8431;52.458;9.998;2022-07-29T12:40:45;1999.90;;;999.90;;
16634;SDS011;8431;52.458;9.998;2022-07-29T12:43:15;1999.90;;;999.90;;
16634;SDS011;8431;52.458;9.998;2022-07-29T12:45:45;572.88;;;316.75;;
16634;SDS011;8431;52.458;9.998;2022-07-29T12:48:17;1509.15;;;755.45;;
16634;SDS011;8431;52.458;9.998;2022-07-29T12:50:58;7.25;;;3.00;;
16634;SDS011;8431;52.458;9.998;2022-07-29T12:53:27;2.67;;;2.47;;
16634;SDS011;8431;52.458;9.998;2022-07-29T12:55:57;4.82;;;2.78;;
16634;SDS011;8431;52.458;9.998;2022-07-29T12:58:31;3.55;;;2.83;;
16634;SDS011;8431;52.458;9.998;2022-07-29T13:01:09;3.65;;;2.60;;
16634;SDS011;8431;52.458;9.998;2022-07-29T13:03:48;3.50;;;2.67;;
16634;SDS011;8431;52.458;9.998;2022-07-29T13:06:36;6.38;;;2.78;;
16634;SDS011;8431;52.458;9.998;2022-07-29T13:09:05;3.70;;;2.80;;
16634;SDS011;8431;52.458;9.998;2022-07-29T13:11:35;4.13;;;2.50;;
16634;SDS011;8431;52.458;9.998;2022-07-29T13:14:04;2.58;;;2.38;;
16634;SDS011;8431;52.458;9.998;2022-07-29T13:16:33;8.75;;;2.40;;
16634;SDS011;8431;52.458;9.998;2022-07-29T13:19:06;2.53;;;2.33;;
16634;SDS011;8431;52.458;9.998;2022-07-29T13:21:35;3.80;;;2.58;;
16634;SDS011;8431;52.458;9.998;2022-07-29T13:24:03;5.03;;;2.75;;
16634;SDS011;8431;52.458;9.998;2022-07-29T13:26:32;3.00;;;2.65;;
16634;SDS011;8431;52.458;9.998;2022-07-29T13:29:11;4.93;;;2.60;;
16634;SDS011;8431;52.458;9.998;2022-07-29T13:31:38;4.72;;;2.30;;
16634;SDS011;8431;52.458;9.998;2022-07-29T13:34:06;6.53;;;2.58;;
16634;SDS011;8431;52.458;9.998;2022-07-29T13:36:33;8.40;;;3.00;;
16634;SDS011;8431;52.458;9.998;2022-07-29T13:39:00;4.25;;;2.35;;
16634;SDS011;8431;52.458;9.998;2022-07-29T13:41:27;4.43;;;3.08;;
16634;SDS011;8431;52.458;9.998;2022-07-29T13:43:55;4.07;;;2.90;;
16634;SDS011;8431;52.458;9.998;2022-07-29T13:46:22;4.30;;;2.90;;
16634;SDS011;8431;52.458;9.998;2022-07-29T13:48:49;4.57;;;2.70;;
16634;SDS011;8431;52.458;9.998;2022-07-29T13:51:17;10.70;;;2.95;;
16634;SDS011;8431;52.458;9.998;2022-07-29T13:53:44;3.00;;;2.60;;
16634;SDS011;8431;52.458;9.998;2022-07-29T13:56:11;4.13;;;2.80;;
16634;SDS011;8431;52.458;9.998;2022-07-29T13:58:38;4.05;;;2.58;;
16634;SDS011;8431;52.458;9.998;2022-07-29T14:01:05;5.18;;;2.70;;
16634;SDS011;8431;52.458;9.998;2022-07-29T14:03:33;4.70;;;3.25;;
16634;SDS011;8431;52.458;9.998;2022-07-29T14:06:03;7.85;;;2.90;;
16634;SDS011;8431;52.458;9.998;2022-07-29T14:08:31;9.50;;;3.00;;
16634;SDS011;8431;52.458;9.998;2022-07-29T14:10:58;3.67;;;2.60;;
16634;SDS011;8431;52.458;9.998;2022-07-29T14:13:25;2.95;;;2.75;;
16634;SDS011;8431;52.458;9.998;2022-07-29T14:15:52;2.97;;;2.20;;
16634;SDS011;8431;52.458;9.998;2022-07-29T14:18:19;7.97;;;2.63;;
16634;SDS011;8431;52.458;9.998;2022-07-29T14:20:46;2.55;;;2.35;;
16634;SDS011;8431;52.458;9.998;2022-07-29T14:23:13;5.25;;;2.50;;
16634;SDS011;8431;52.458;9.998;2022-07-29T14:25:42;3.30;;;2.33;;
16634;SDS011;8431;52.458;9.998;2022-07-29T14:28:09;3.65;;;2.60;;
16634;SDS011;8431;52.458;9.998;2022-07-29T14:30:36;2.80;;;2.60;;
16634;SDS011;8431;52.458;9.998;2022-07-29T14:33:03;3.35;;;2.97;;
16634;SDS011;8431;52.458;9.998;2022-07-29T14:35:30;6.03;;;2.85;;
16634;SDS011;8431;52.458;9.998;2022-07-29T14:38:01;3.10;;;2.50;;
16634;SDS011;8431;52.458;9.998;2022-07-29T14:40:28;6.03;;;2.90;;
16634;SDS011;8431;52.458;9.998;2022-07-29T14:42:57;2.95;;;2.75;;
16634;SDS011;8431;52.458;9.998;2022-07-29T14:45:24;4.05;;;2.67;;
16634;SDS011;8431;52.458;9.998;2022-07-29T14:47:53;4.80;;;2.40;;
16634;SDS011;8431;52.458;9.998;2022-07-29T14:50:20;2.55;;;2.40;;
16634;SDS011;8431;52.458;9.998;2022-07-29T14:52:47;2.97;;;2.67;;
16634;SDS011;8431;52.458;9.998;2022-07-29T14:55:14;5.97;;;2.83;;
16634;SDS011;8431;52.458;9.998;2022-07-29T14:57:41;3.60;;;2.95;;
16634;SDS011;8431;52.458;9.998;2022-07-29T15:00:10;2.70;;;2.50;;
16634;SDS011;8431;52.458;9.998;2022-07-29T15:02:37;2.97;;;2.60;;
16634;SDS011;8431;52.458;9.998;2022-07-29T15:05:05;7.57;;;2.60;;
16634;SDS011;8431;52.458;9.998;2022-07-29T15:07:32;3.30;;;2.92;;
16634;SDS011;8431;52.458;9.998;2022-07-29T15:09:59;2.78;;;2.60;;
16634;SDS011;8431;52.458;9.998;2022-07-29T15:12:27;4.05;;;2.85;;
16634;SDS011;8431;52.458;9.998;2022-07-29T15:14:54;3.72;;;2.67;;
16634;SDS011;8431;52.458;9.998;2022-07-29T15:17:22;4.07;;;2.53;;
16634;SDS011;8431;52.458;9.998;2022-07-29T15:19:50;8.18;;;2.90;;
16634;SDS011;8431;52.458;9.998;2022-07-29T15:22:17;518.33;;;132.95;;
16634;SDS011;8431;52.458;9.998;2022-07-29T15:24:44;4.40;;;2.95;;
16634;SDS011;8431;52.458;9.998;2022-07-29T15:27:11;5.18;;;2.53;;
16634;SDS011;8431;52.458;9.998;2022-07-29T15:29:39;2.78;;;2.00;;
16634;SDS011;8431;52.458;9.998;2022-07-29T15:32:06;5.13;;;2.70;;